METAR Data
IDs: Format: Raw Decoded Include TAF

Data at: 2257 UTC 25 Oct 2021

PADE 252253Z AUTO 21015KT 10SM FEW080 M02/M06 A2925 RMK AO2 SLP905 T10221061 TSNO
PADE 252153Z AUTO 20014KT 10SM OVC070 M02/M06 A2925 RMK AO2 SLP904 T10221061 TSNO
PADE 252053Z AUTO 20013KT 10SM OVC075 M03/M06 A2924 RMK AO2 SLP902 T10331056 53008 TSNO
PADE 251953Z AUTO 20011KT 10SM FEW080 M04/M06 A2923 RMK AO2 SLP899 T10441061 TSNO
PADE 251853Z AUTO 20012KT 10SM FEW120 M04/M06 A2922 RMK AO2 SLP896 T10441061 TSNO
PADE 251753Z AUTO 19012KT 10SM CLR M04/M06 A2922 RMK AO2 SLP894 T10441061 11028 21050 50002 TSNO
PADE 251653Z AUTO 19013KT 10SM FEW024 FEW037 M04/M06 A2922 RMK AO2 SLP895 T10391061 TSNO
PADE 251616Z AUTO 20015KT 10SM SCT026 M04/M06 A2921 RMK AO2 T10391061 TSNO
PADE 251553Z AUTO 20014KT 10SM BKN026 M04/M06 A2921 RMK AO2 SLP893 T10391061 TSNO
PADE 251551Z AUTO 20015KT 10SM BKN024 M04/M06 A2921 RMK AO2 TSNO
PADE 251453Z AUTO 20015KT 10SM CLR M04/M06 A2921 RMK AO2 SLP892 T10441061 58002 TSNO
PADE 251353Z AUTO 20014KT 10SM SCT110 M04/M06 A2922 RMK AO2 SLP894 T10391056 TSNO
PADE 251253Z AUTO 19011KT 10SM BKN110 M03/M06 A2921 RMK AO2 SLP893 T10331056 TSNO
PADE 251153Z AUTO 19009KT 10SM OVC055 M03/M05 A2922 RMK AO2 SLP894 60000 T10281050 11022 21039 58005 TSNO
PADE 251053Z AUTO 19010KT 10SM OVC042 M02/M04 A2922 RMK AO2 SLP896 T10221039 TSNO
PADE 250953Z AUTO 18008KT 10SM OVC044 M03/M04 A2923 RMK AO2 SNE14 SLP898 P0000 T10281039 TSNO
PADE 250905Z AUTO 18007KT 4SM -SN BR FEW025 OVC034 M02/M03 A2923 RMK AO2 P0000 T10221033 TSNO
PADE 250853Z AUTO 19009KT 2 1/2SM -SN BR OVC025 M02/M03 A2923 RMK AO2 SNB10 SLP899 P0000 60000 T10221033 410061044 55000 TSNO
PADE 250811Z AUTO 19008KT 8SM -SN BKN019 OVC033 M02/M04 A2923 RMK AO2 SNB10 P0000 T10221039 TSNO
PADE 250753Z AUTO 16009KT 10SM FEW018 OVC033 M03/M04 A2923 RMK AO2 SLP898 T10281044 TSNO
PADE 250653Z AUTO 15009KT 10SM FEW044 SCT060 SCT090 M04/M06 A2923 RMK AO2 SLP899 T10391061 TSNO
PADE 250553Z AUTO 15013KT 10SM FEW029 M03/M05 A2923 RMK AO2 SLP900 T10281050 11006 21044 56009 TSNO
PADE 250453Z AUTO 16008KT 10SM BKN034 M03/M04 A2924 RMK AO2 SLP903 T10281044 TSNO
PADE 250353Z AUTO 15009KT 10SM FEW035 OVC065 M01/M03 A2925 RMK AO2 SLP904 T10111028 TSNO
PADE 250253Z AUTO 00000KT 9SM FEW043 OVC055 M02/M03 A2926 RMK AO2 SLP909 T10171028 56012 TSNO
PADE 250153Z AUTO 12008KT 10SM BKN040 OVC050 M01/M03 A2927 RMK AO2 SLP912 T10061028 TSNO
PADE 250053Z AUTO 13008KT 10SM OVC046 M01/M02 A2928 RMK AO2 SLP915 T10061022 TSNO
PADE 242353Z AUTO 12010KT 10SM OVC039 M01/M02 A2930 RMK AO2 SLP921 T10061022 11006 21022 58009 TSNO
PADE 242253Z AUTO 14008KT 10SM OVC034 M01/M02 A2931 RMK AO2 SLP926 T10061022 TSNO
PADE 242153Z AUTO 14010KT 10SM OVC035 M01/M03 A2932 RMK AO2 SLP928 T10111028 TSNO
PADE 242053Z AUTO 14011KT 10SM OVC032 M01/M03 A2932 RMK AO2 SLP930 T10111028 57005 TSNO
PADE 241953Z AUTO 21004KT 10SM OVC033 M02/M03 A2933 RMK AO2 SLP932 T10171028 TSNO
PADE 241853Z AUTO 00000KT 10SM OVC030 M02/M03 A2933 RMK AO2 SLP933 T10171028 TSNO
PADE 241753Z AUTO VRB05KT 10SM FEW028 BKN034 OVC075 M02/M03 A2934 RMK AO2 SLP935 60000 T10171028 11017 21033 58006 TSNO
PADE 241653Z AUTO 20005KT 9SM OVC040 M02/M03 A2935 RMK AO2 SNB1556E05 SLP939 P0000 T10171028 TSNO
PADE 241553Z AUTO 15007KT 10SM SCT028 OVC045 M02/M03 A2935 RMK AO2 SNE1456 SLP941 P0000 T10221033 TSNO
PADE 241453Z AUTO 14004KT 9SM -SN OVC028 M02/M03 A2936 RMK AO2 SNB28 SLP941 P0000 60000 T10221033 50001 TSNO
PADE 241353Z AUTO 00000KT 10SM OVC041 M02/M03 A2936 RMK AO2 SNE33 SLP943 P0000 T10221028 TSNO
PADE 241342Z AUTO 12004KT 10SM SCT020 OVC043 M02/M03 A2936 RMK AO2 SNE33 P0000 T10221028 TSNO
PADE 241325Z AUTO 00000KT 6SM -SN BR OVC024 M02/M03 A2936 RMK AO2 P0000 T10221028 TSNO
PADE 241253Z AUTO 00000KT 6SM -SN BR FEW020 OVC036 M02/M03 A2935 RMK AO2 SLP941 P0000 T10221028 TSNO
PADE 241250Z AUTO 12003KT 6SM -SN BR SCT019 OVC036 M02/M03 A2935 RMK AO2 P0000 TSNO
PADE 241219Z AUTO 00000KT 4SM -SN BR BKN019 OVC050 M02/M03 A2936 RMK AO2 P0000 T10221028 TSNO
PADE 241153Z AUTO 00000KT 3SM -SN BR OVC032 M02/M03 A2936 RMK AO2 SNB02 SLP942 P0000 60000 T10171028 11011 21022 51008 TSNO
PADE 241129Z AUTO 00000KT 3SM -SN BR OVC029 M02/M03 A2936 RMK AO2 SNB02 P0000 T10221028 TSNO